sensor_id;sensor_type;location;lat;lon;timestamp;P1;durP1;ratioP1;P2;durP2;ratioP2
7665;SDS011;3875;46.562;4.898;2022-10-31T00:00:40;13.40;;;4.80;;
7665;SDS011;3875;46.562;4.898;2022-10-31T00:03:06;9.23;;;4.37;;
7665;SDS011;3875;46.562;4.898;2022-10-31T00:05:31;9.33;;;4.90;;
7665;SDS011;3875;46.562;4.898;2022-10-31T00:07:57;11.47;;;4.50;;
7665;SDS011;3875;46.562;4.898;2022-10-31T00:10:23;11.17;;;4.87;;
7665;SDS011;3875;46.562;4.898;2022-10-31T00:12:48;13.53;;;5.43;;
7665;SDS011;3875;46.562;4.898;2022-10-31T00:15:14;20.60;;;5.50;;
7665;SDS011;3875;46.562;4.898;2022-10-31T00:17:40;15.13;;;4.97;;
7665;SDS011;3875;46.562;4.898;2022-10-31T00:20:05;10.63;;;4.70;;
7665;SDS011;3875;46.562;4.898;2022-10-31T00:22:31;11.73;;;4.50;;
7665;SDS011;3875;46.562;4.898;2022-10-31T00:24:57;11.73;;;4.93;;
7665;SDS011;3875;46.562;4.898;2022-10-31T00:27:23;12.13;;;6.47;;
7665;SDS011;3875;46.562;4.898;2022-10-31T00:29:48;7.77;;;5.20;;
7665;SDS011;3875;46.562;4.898;2022-10-31T00:32:14;14.53;;;5.77;;
7665;SDS011;3875;46.562;4.898;2022-10-31T00:34:40;17.17;;;5.37;;
7665;SDS011;3875;46.562;4.898;2022-10-31T00:37:05;16.07;;;5.10;;
7665;SDS011;3875;46.562;4.898;2022-10-31T00:39:31;13.20;;;5.10;;
7665;SDS011;3875;46.562;4.898;2022-10-31T00:41:56;7.30;;;4.70;;
7665;SDS011;3875;46.562;4.898;2022-10-31T00:44:22;13.50;;;4.90;;
7665;SDS011;3875;46.562;4.898;2022-10-31T00:46:48;10.97;;;5.07;;
7665;SDS011;3875;46.562;4.898;2022-10-31T00:49:13;8.83;;;4.97;;
7665;SDS011;3875;46.562;4.898;2022-10-31T00:51:39;11.00;;;5.03;;
7665;SDS011;3875;46.562;4.898;2022-10-31T00:54:05;10.43;;;4.77;;
7665;SDS011;3875;46.562;4.898;2022-10-31T00:56:30;10.57;;;5.27;;
7665;SDS011;3875;46.562;4.898;2022-10-31T00:58:56;13.17;;;5.30;;
7665;SDS011;3875;46.562;4.898;2022-10-31T01:01:22;9.13;;;5.23;;
7665;SDS011;3875;46.562;4.898;2022-10-31T01:03:47;8.97;;;4.70;;
7665;SDS011;3875;46.562;4.898;2022-10-31T01:06:13;11.43;;;5.37;;
7665;SDS011;3875;46.562;4.898;2022-10-31T01:08:39;12.47;;;6.07;;
7665;SDS011;3875;46.562;4.898;2022-10-31T01:13:31;9.23;;;5.33;;
7665;SDS011;3875;46.562;4.898;2022-10-31T01:15:57;10.80;;;5.00;;
7665;SDS011;3875;46.562;4.898;2022-10-31T01:18:24;11.47;;;5.60;;
7665;SDS011;3875;46.562;4.898;2022-10-31T01:20:57;13.27;;;5.67;;
7665;SDS011;3875;46.562;4.898;2022-10-31T01:23:24;9.93;;;5.67;;
7665;SDS011;3875;46.562;4.898;2022-10-31T01:25:49;11.40;;;5.23;;
7665;SDS011;3875;46.562;4.898;2022-10-31T01:28:35;10.47;;;5.87;;
7665;SDS011;3875;46.562;4.898;2022-10-31T01:31:04;11.70;;;5.40;;
7665;SDS011;3875;46.562;4.898;2022-10-31T01:33:31;12.47;;;5.20;;
7665;SDS011;3875;46.562;4.898;2022-10-31T01:35:57;8.57;;;5.03;;
7665;SDS011;3875;46.562;4.898;2022-10-31T01:38:23;11.57;;;5.60;;
7665;SDS011;3875;46.562;4.898;2022-10-31T01:40:49;12.03;;;5.80;;
7665;SDS011;3875;46.562;4.898;2022-10-31T01:43:15;16.13;;;5.53;;
7665;SDS011;3875;46.562;4.898;2022-10-31T01:45:45;13.20;;;6.07;;
7665;SDS011;3875;46.562;4.898;2022-10-31T01:48:16;14.30;;;5.87;;
7665;SDS011;3875;46.562;4.898;2022-10-31T01:50:46;12.77;;;6.27;;
7665;SDS011;3875;46.562;4.898;2022-10-31T01:53:15;16.80;;;5.97;;
7665;SDS011;3875;46.562;4.898;2022-10-31T01:55:42;14.50;;;6.23;;
7665;SDS011;3875;46.562;4.898;2022-10-31T01:58:12;12.40;;;6.13;;
7665;SDS011;3875;46.562;4.898;2022-10-31T02:00:40;11.00;;;5.80;;
7665;SDS011;3875;46.562;4.898;2022-10-31T02:03:10;15.73;;;5.70;;
7665;SDS011;3875;46.562;4.898;2022-10-31T02:05:36;11.73;;;6.40;;
7665;SDS011;3875;46.562;4.898;2022-10-31T02:10:34;12.23;;;5.70;;
7665;SDS011;3875;46.562;4.898;2022-10-31T02:13:03;14.77;;;6.40;;
7665;SDS011;3875;46.562;4.898;2022-10-31T02:15:31;13.30;;;5.57;;
7665;SDS011;3875;46.562;4.898;2022-10-31T02:17:57;11.83;;;6.07;;
7665;SDS011;3875;46.562;4.898;2022-10-31T02:20:24;9.80;;;6.10;;
7665;SDS011;3875;46.562;4.898;2022-10-31T02:25:57;17.03;;;6.20;;
7665;SDS011;3875;46.562;4.898;2022-10-31T02:29:16;17.83;;;6.20;;
7665;SDS011;3875;46.562;4.898;2022-10-31T02:32:20;9.93;;;6.00;;
7665;SDS011;3875;46.562;4.898;2022-10-31T02:37:47;11.83;;;6.83;;
7665;SDS011;3875;46.562;4.898;2022-10-31T02:40:30;15.73;;;6.00;;
7665;SDS011;3875;46.562;4.898;2022-10-31T02:46:08;8.23;;;5.80;;
7665;SDS011;3875;46.562;4.898;2022-10-31T02:48:40;10.67;;;6.57;;
7665;SDS011;3875;46.562;4.898;2022-10-31T02:51:08;15.90;;;6.07;;
7665;SDS011;3875;46.562;4.898;2022-10-31T02:53:36;15.53;;;7.00;;
7665;SDS011;3875;46.562;4.898;2022-10-31T02:58:35;8.63;;;6.00;;
7665;SDS011;3875;46.562;4.898;2022-10-31T03:01:12;12.60;;;7.13;;
7665;SDS011;3875;46.562;4.898;2022-10-31T03:06:18;12.80;;;6.00;;
7665;SDS011;3875;46.562;4.898;2022-10-31T03:11:23;13.97;;;5.67;;
7665;SDS011;3875;46.562;4.898;2022-10-31T03:16:46;17.80;;;5.93;;
7665;SDS011;3875;46.562;4.898;2022-10-31T03:19:19;15.17;;;6.90;;
7665;SDS011;3875;46.562;4.898;2022-10-31T03:21:53;10.33;;;6.07;;
7665;SDS011;3875;46.562;4.898;2022-10-31T03:24:19;13.03;;;7.00;;
7665;SDS011;3875;46.562;4.898;2022-10-31T03:26:48;14.80;;;6.00;;
7665;SDS011;3875;46.562;4.898;2022-10-31T03:29:18;10.83;;;6.40;;
7665;SDS011;3875;46.562;4.898;2022-10-31T03:31:50;12.60;;;5.50;;
7665;SDS011;3875;46.562;4.898;2022-10-31T03:34:20;13.40;;;6.30;;
7665;SDS011;3875;46.562;4.898;2022-10-31T03:36:48;11.87;;;6.70;;
7665;SDS011;3875;46.562;4.898;2022-10-31T03:39:17;13.73;;;6.60;;
7665;SDS011;3875;46.562;4.898;2022-10-31T03:41:46;8.83;;;5.93;;
7665;SDS011;3875;46.562;4.898;2022-10-31T03:44:27;13.60;;;6.77;;
7665;SDS011;3875;46.562;4.898;2022-10-31T03:46:55;13.23;;;6.50;;
7665;SDS011;3875;46.562;4.898;2022-10-31T03:49:21;17.00;;;6.43;;
7665;SDS011;3875;46.562;4.898;2022-10-31T03:51:49;12.77;;;6.63;;
7665;SDS011;3875;46.562;4.898;2022-10-31T03:57:15;15.47;;;6.70;;
7665;SDS011;3875;46.562;4.898;2022-10-31T03:59:50;17.07;;;6.37;;
7665;SDS011;3875;46.562;4.898;2022-10-31T04:02:20;14.00;;;6.53;;
7665;SDS011;3875;46.562;4.898;2022-10-31T04:04:50;11.40;;;6.30;;
7665;SDS011;3875;46.562;4.898;2022-10-31T04:07:16;14.40;;;7.17;;
7665;SDS011;3875;46.562;4.898;2022-10-31T04:09:44;15.10;;;7.43;;
7665;SDS011;3875;46.562;4.898;2022-10-31T04:12:12;12.90;;;6.63;;
7665;SDS011;3875;46.562;4.898;2022-10-31T04:14:40;12.80;;;6.80;;
7665;SDS011;3875;46.562;4.898;2022-10-31T04:17:09;13.57;;;7.33;;
7665;SDS011;3875;46.562;4.898;2022-10-31T04:19:37;21.33;;;7.43;;
7665;SDS011;3875;46.562;4.898;2022-10-31T04:22:03;11.57;;;7.30;;
7665;SDS011;3875;46.562;4.898;2022-10-31T04:24:29;13.70;;;6.70;;
7665;SDS011;3875;46.562;4.898;2022-10-31T04:26:54;17.67;;;7.97;;
7665;SDS011;3875;46.562;4.898;2022-10-31T04:29:20;12.70;;;6.90;;
7665;SDS011;3875;46.562;4.898;2022-10-31T04:31:46;13.43;;;6.50;;
7665;SDS011;3875;46.562;4.898;2022-10-31T04:34:11;9.73;;;6.53;;
7665;SDS011;3875;46.562;4.898;2022-10-31T04:36:37;14.73;;;6.90;;
7665;SDS011;3875;46.562;4.898;2022-10-31T04:39:03;16.80;;;6.77;;
7665;SDS011;3875;46.562;4.898;2022-10-31T04:41:31;18.70;;;7.43;;
7665;SDS011;3875;46.562;4.898;2022-10-31T04:43:57;14.87;;;7.03;;
7665;SDS011;3875;46.562;4.898;2022-10-31T04:46:22;14.93;;;6.30;;
7665;SDS011;3875;46.562;4.898;2022-10-31T04:48:48;17.60;;;7.27;;
7665;SDS011;3875;46.562;4.898;2022-10-31T04:51:14;16.73;;;7.10;;
7665;SDS011;3875;46.562;4.898;2022-10-31T04:53:39;12.40;;;6.83;;
7665;SDS011;3875;46.562;4.898;2022-10-31T04:56:05;15.93;;;6.60;;
7665;SDS011;3875;46.562;4.898;2022-10-31T04:58:31;15.10;;;6.43;;
7665;SDS011;3875;46.562;4.898;2022-10-31T05:00:57;17.20;;;7.70;;
7665;SDS011;3875;46.562;4.898;2022-10-31T05:03:22;16.70;;;7.10;;
7665;SDS011;3875;46.562;4.898;2022-10-31T05:05:48;14.63;;;7.13;;
7665;SDS011;3875;46.562;4.898;2022-10-31T05:08:14;15.23;;;7.10;;
7665;SDS011;3875;46.562;4.898;2022-10-31T05:10:39;16.23;;;7.20;;
7665;SDS011;3875;46.562;4.898;2022-10-31T05:13:05;18.27;;;6.83;;
7665;SDS011;3875;46.562;4.898;2022-10-31T05:15:32;15.57;;;7.27;;
7665;SDS011;3875;46.562;4.898;2022-10-31T05:17:58;14.83;;;7.13;;
7665;SDS011;3875;46.562;4.898;2022-10-31T05:20:25;16.67;;;6.63;;
7665;SDS011;3875;46.562;4.898;2022-10-31T05:22:53;13.33;;;6.73;;
7665;SDS011;3875;46.562;4.898;2022-10-31T05:25:21;15.73;;;6.87;;
7665;SDS011;3875;46.562;4.898;2022-10-31T05:27:48;10.77;;;6.23;;
7665;SDS011;3875;46.562;4.898;2022-10-31T05:30:17;21.93;;;7.53;;
7665;SDS011;3875;46.562;4.898;2022-10-31T05:32:46;14.60;;;6.87;;
7665;SDS011;3875;46.562;4.898;2022-10-31T05:35:13;14.60;;;7.57;;
7665;SDS011;3875;46.562;4.898;2022-10-31T05:37:44;12.57;;;7.30;;
7665;SDS011;3875;46.562;4.898;2022-10-31T05:40:10;15.63;;;7.37;;
7665;SDS011;3875;46.562;4.898;2022-10-31T05:42:40;11.83;;;7.50;;
7665;SDS011;3875;46.562;4.898;2022-10-31T05:45:07;12.33;;;7.50;;
7665;SDS011;3875;46.562;4.898;2022-10-31T05:47:34;16.27;;;7.47;;
7665;SDS011;3875;46.562;4.898;2022-10-31T05:50:00;22.10;;;8.30;;
7665;SDS011;3875;46.562;4.898;2022-10-31T05:52:26;14.77;;;7.23;;
7665;SDS011;3875;46.562;4.898;2022-10-31T05:54:51;14.83;;;7.40;;
7665;SDS011;3875;46.562;4.898;2022-10-31T05:57:17;16.00;;;6.50;;
7665;SDS011;3875;46.562;4.898;2022-10-31T05:59:43;13.07;;;8.00;;
7665;SDS011;3875;46.562;4.898;2022-10-31T06:02:08;18.73;;;7.40;;
7665;SDS011;3875;46.562;4.898;2022-10-31T06:04:34;13.20;;;7.60;;
7665;SDS011;3875;46.562;4.898;2022-10-31T06:07:00;20.30;;;8.27;;
7665;SDS011;3875;46.562;4.898;2022-10-31T06:09:25;15.90;;;7.80;;
7665;SDS011;3875;46.562;4.898;2022-10-31T06:11:51;18.33;;;7.63;;
7665;SDS011;3875;46.562;4.898;2022-10-31T06:14:17;12.80;;;7.13;;
7665;SDS011;3875;46.562;4.898;2022-10-31T06:16:42;18.27;;;7.90;;
7665;SDS011;3875;46.562;4.898;2022-10-31T06:19:08;17.43;;;8.50;;
7665;SDS011;3875;46.562;4.898;2022-10-31T06:21:34;15.03;;;7.97;;
7665;SDS011;3875;46.562;4.898;2022-10-31T06:23:59;23.33;;;8.70;;
7665;SDS011;3875;46.562;4.898;2022-10-31T06:26:25;14.40;;;7.83;;
7665;SDS011;3875;46.562;4.898;2022-10-31T06:28:51;12.37;;;7.80;;
7665;SDS011;3875;46.562;4.898;2022-10-31T06:31:17;18.13;;;7.97;;
7665;SDS011;3875;46.562;4.898;2022-10-31T06:33:42;16.03;;;8.53;;
7665;SDS011;3875;46.562;4.898;2022-10-31T06:36:08;16.87;;;8.90;;
7665;SDS011;3875;46.562;4.898;2022-10-31T06:38:34;19.03;;;8.67;;
7665;SDS011;3875;46.562;4.898;2022-10-31T06:41:04;16.20;;;8.33;;
7665;SDS011;3875;46.562;4.898;2022-10-31T06:43:30;18.57;;;8.60;;
7665;SDS011;3875;46.562;4.898;2022-10-31T06:45:56;22.70;;;8.57;;
7665;SDS011;3875;46.562;4.898;2022-10-31T06:48:22;15.87;;;8.70;;
7665;SDS011;3875;46.562;4.898;2022-10-31T06:50:48;17.40;;;7.73;;
7665;SDS011;3875;46.562;4.898;2022-10-31T06:53:13;10.50;;;7.73;;
7665;SDS011;3875;46.562;4.898;2022-10-31T06:55:39;16.47;;;7.73;;
7665;SDS011;3875;46.562;4.898;2022-10-31T06:58:05;18.73;;;8.50;;
7665;SDS011;3875;46.562;4.898;2022-10-31T07:00:33;16.17;;;8.10;;
7665;SDS011;3875;46.562;4.898;2022-10-31T07:02:59;13.63;;;8.00;;
7665;SDS011;3875;46.562;4.898;2022-10-31T07:05:30;13.40;;;8.30;;
7665;SDS011;3875;46.562;4.898;2022-10-31T07:07:57;16.80;;;8.67;;
7665;SDS011;3875;46.562;4.898;2022-10-31T07:10:24;21.27;;;8.20;;
7665;SDS011;3875;46.562;4.898;2022-10-31T07:13:02;15.20;;;7.60;;
7665;SDS011;3875;46.562;4.898;2022-10-31T07:15:32;21.40;;;7.90;;
7665;SDS011;3875;46.562;4.898;2022-10-31T07:18:00;18.43;;;8.57;;
7665;SDS011;3875;46.562;4.898;2022-10-31T07:20:26;16.23;;;7.57;;
7665;SDS011;3875;46.562;4.898;2022-10-31T07:22:53;17.33;;;7.33;;
7665;SDS011;3875;46.562;4.898;2022-10-31T07:25:19;20.03;;;8.17;;
7665;SDS011;3875;46.562;4.898;2022-10-31T07:27:44;10.37;;;7.53;;
7665;SDS011;3875;46.562;4.898;2022-10-31T07:30:11;13.50;;;6.70;;
7665;SDS011;3875;46.562;4.898;2022-10-31T07:32:47;14.43;;;6.93;;
7665;SDS011;3875;46.562;4.898;2022-10-31T07:35:15;13.90;;;7.10;;
7665;SDS011;3875;46.562;4.898;2022-10-31T07:37:45;13.80;;;7.00;;
7665;SDS011;3875;46.562;4.898;2022-10-31T07:40:11;18.40;;;6.87;;
7665;SDS011;3875;46.562;4.898;2022-10-31T07:42:37;15.70;;;7.13;;
7665;SDS011;3875;46.562;4.898;2022-10-31T07:45:08;18.33;;;7.33;;
7665;SDS011;3875;46.562;4.898;2022-10-31T07:47:42;16.27;;;7.10;;
7665;SDS011;3875;46.562;4.898;2022-10-31T07:50:19;17.80;;;7.50;;
7665;SDS011;3875;46.562;4.898;2022-10-31T07:52:57;19.13;;;7.47;;
7665;SDS011;3875;46.562;4.898;2022-10-31T07:55:27;13.83;;;6.70;;
7665;SDS011;3875;46.562;4.898;2022-10-31T07:57:57;17.00;;;8.00;;
7665;SDS011;3875;46.562;4.898;2022-10-31T08:00:23;12.97;;;6.73;;
7665;SDS011;3875;46.562;4.898;2022-10-31T08:02:56;14.17;;;7.53;;
7665;SDS011;3875;46.562;4.898;2022-10-31T08:05:42;15.93;;;7.57;;
7665;SDS011;3875;46.562;4.898;2022-10-31T08:08:09;16.37;;;6.80;;
7665;SDS011;3875;46.562;4.898;2022-10-31T08:10:35;15.63;;;7.90;;
7665;SDS011;3875;46.562;4.898;2022-10-31T08:13:02;11.30;;;6.53;;
7665;SDS011;3875;46.562;4.898;2022-10-31T08:15:30;10.17;;;6.90;;
7665;SDS011;3875;46.562;4.898;2022-10-31T08:17:57;14.60;;;6.87;;
7665;SDS011;3875;46.562;4.898;2022-10-31T08:20:23;19.43;;;7.60;;
7665;SDS011;3875;46.562;4.898;2022-10-31T08:22:56;19.60;;;7.70;;
7665;SDS011;3875;46.562;4.898;2022-10-31T08:25:23;17.27;;;8.30;;
7665;SDS011;3875;46.562;4.898;2022-10-31T08:27:49;15.30;;;7.17;;
7665;SDS011;3875;46.562;4.898;2022-10-31T08:30:16;18.17;;;7.23;;
7665;SDS011;3875;46.562;4.898;2022-10-31T08:32:42;18.80;;;7.67;;
7665;SDS011;3875;46.562;4.898;2022-10-31T08:35:08;12.87;;;6.67;;
7665;SDS011;3875;46.562;4.898;2022-10-31T08:37:34;18.63;;;7.07;;
7665;SDS011;3875;46.562;4.898;2022-10-31T08:39:59;15.87;;;7.63;;
7665;SDS011;3875;46.562;4.898;2022-10-31T08:42:25;21.77;;;7.50;;
7665;SDS011;3875;46.562;4.898;2022-10-31T08:44:51;16.73;;;7.23;;
7665;SDS011;3875;46.562;4.898;2022-10-31T08:47:16;16.57;;;6.90;;
7665;SDS011;3875;46.562;4.898;2022-10-31T08:49:42;13.80;;;7.50;;
7665;SDS011;3875;46.562;4.898;2022-10-31T08:52:07;14.87;;;6.87;;
7665;SDS011;3875;46.562;4.898;2022-10-31T08:54:33;17.10;;;7.30;;
7665;SDS011;3875;46.562;4.898;2022-10-31T08:56:59;17.27;;;7.73;;
7665;SDS011;3875;46.562;4.898;2022-10-31T08:59:24;13.40;;;7.43;;
7665;SDS011;3875;46.562;4.898;2022-10-31T09:01:50;14.47;;;7.23;;
7665;SDS011;3875;46.562;4.898;2022-10-31T09:04:16;17.33;;;7.40;;
7665;SDS011;3875;46.562;4.898;2022-10-31T09:06:41;16.50;;;7.43;;
7665;SDS011;3875;46.562;4.898;2022-10-31T09:09:07;13.63;;;7.20;;
7665;SDS011;3875;46.562;4.898;2022-10-31T09:11:33;17.27;;;7.27;;
7665;SDS011;3875;46.562;4.898;2022-10-31T09:13:58;22.83;;;8.60;;
7665;SDS011;3875;46.562;4.898;2022-10-31T09:16:24;13.17;;;7.93;;
7665;SDS011;3875;46.562;4.898;2022-10-31T09:18:50;14.73;;;8.13;;
7665;SDS011;3875;46.562;4.898;2022-10-31T09:21:15;11.77;;;7.10;;
7665;SDS011;3875;46.562;4.898;2022-10-31T09:23:41;14.37;;;7.70;;
7665;SDS011;3875;46.562;4.898;2022-10-31T09:26:06;16.43;;;7.13;;
7665;SDS011;3875;46.562;4.898;2022-10-31T09:28:32;20.10;;;8.57;;
7665;SDS011;3875;46.562;4.898;2022-10-31T09:30:58;22.77;;;8.93;;
7665;SDS011;3875;46.562;4.898;2022-10-31T09:33:24;16.70;;;9.30;;
7665;SDS011;3875;46.562;4.898;2022-10-31T09:35:49;16.60;;;8.07;;
7665;SDS011;3875;46.562;4.898;2022-10-31T09:38:16;17.80;;;8.63;;
7665;SDS011;3875;46.562;4.898;2022-10-31T09:48:45;14.87;;;8.77;;
7665;SDS011;3875;46.562;4.898;2022-10-31T09:51:34;14.80;;;8.40;;
7665;SDS011;3875;46.562;4.898;2022-10-31T09:54:11;14.73;;;8.17;;
7665;SDS011;3875;46.562;4.898;2022-10-31T09:56:43;18.87;;;8.47;;
7665;SDS011;3875;46.562;4.898;2022-10-31T09:59:21;17.73;;;9.20;;
7665;SDS011;3875;46.562;4.898;2022-10-31T10:01:56;16.50;;;8.73;;
7665;SDS011;3875;46.562;4.898;2022-10-31T10:10:24;14.57;;;7.57;;
7665;SDS011;3875;46.562;4.898;2022-10-31T10:26:26;16.93;;;6.90;;
7665;SDS011;3875;46.562;4.898;2022-10-31T10:29:03;15.70;;;7.37;;
7665;SDS011;3875;46.562;4.898;2022-10-31T10:31:35;19.13;;;7.70;;
7665;SDS011;3875;46.562;4.898;2022-10-31T10:34:17;14.13;;;7.27;;
7665;SDS011;3875;46.562;4.898;2022-10-31T10:36:52;11.85;;;7.40;;
7665;SDS011;3875;46.562;4.898;2022-10-31T10:39:33;10.63;;;6.47;;
7665;SDS011;3875;46.562;4.898;2022-10-31T10:42:12;15.93;;;7.50;;
7665;SDS011;3875;46.562;4.898;2022-10-31T10:44:58;10.93;;;6.90;;
7665;SDS011;3875;46.562;4.898;2022-10-31T10:47:48;20.90;;;6.70;;
7665;SDS011;3875;46.562;4.898;2022-10-31T10:50:23;17.10;;;6.43;;
7665;SDS011;3875;46.562;4.898;2022-10-31T10:55:49;19.37;;;6.93;;
7665;SDS011;3875;46.562;4.898;2022-10-31T10:58:20;16.00;;;6.03;;
7665;SDS011;3875;46.562;4.898;2022-10-31T11:00:46;13.57;;;6.27;;
7665;SDS011;3875;46.562;4.898;2022-10-31T11:03:14;12.50;;;6.47;;
7665;SDS011;3875;46.562;4.898;2022-10-31T11:11:04;16.97;;;5.50;;
7665;SDS011;3875;46.562;4.898;2022-10-31T11:13:35;9.83;;;5.30;;
7665;SDS011;3875;46.562;4.898;2022-10-31T11:16:09;13.67;;;5.80;;
7665;SDS011;3875;46.562;4.898;2022-10-31T11:18:42;14.50;;;5.30;;
7665;SDS011;3875;46.562;4.898;2022-10-31T11:21:44;16.83;;;5.50;;
7665;SDS011;3875;46.562;4.898;2022-10-31T11:26:28;10.93;;;4.67;;
7665;SDS011;3875;46.562;4.898;2022-10-31T11:28:58;13.60;;;5.13;;
7665;SDS011;3875;46.562;4.898;2022-10-31T11:31:24;15.38;;;5.82;;
7665;SDS011;3875;46.562;4.898;2022-10-31T11:33:55;15.17;;;6.10;;
7665;SDS011;3875;46.562;4.898;2022-10-31T11:36:26;13.70;;;5.07;;
7665;SDS011;3875;46.562;4.898;2022-10-31T11:38:55;13.97;;;5.30;;
7665;SDS011;3875;46.562;4.898;2022-10-31T11:44:02;12.60;;;5.80;;
7665;SDS011;3875;46.562;4.898;2022-10-31T11:46:31;21.50;;;5.80;;
7665;SDS011;3875;46.562;4.898;2022-10-31T11:48:58;11.30;;;5.37;;
7665;SDS011;3875;46.562;4.898;2022-10-31T11:51:32;10.43;;;4.83;;
7665;SDS011;3875;46.562;4.898;2022-10-31T11:54:00;10.83;;;5.80;;
7665;SDS011;3875;46.562;4.898;2022-10-31T11:56:36;13.00;;;5.33;;
7665;SDS011;3875;46.562;4.898;2022-10-31T11:59:04;11.13;;;5.07;;
7665;SDS011;3875;46.562;4.898;2022-10-31T12:01:39;12.30;;;4.83;;
7665;SDS011;3875;46.562;4.898;2022-10-31T12:04:11;10.90;;;5.00;;
7665;SDS011;3875;46.562;4.898;2022-10-31T12:06:41;7.77;;;4.93;;
7665;SDS011;3875;46.562;4.898;2022-10-31T12:14:39;13.37;;;4.80;;
7665;SDS011;3875;46.562;4.898;2022-10-31T12:22:12;15.93;;;5.88;;
7665;SDS011;3875;46.562;4.898;2022-10-31T12:24:48;12.23;;;5.23;;
7665;SDS011;3875;46.562;4.898;2022-10-31T12:30:01;15.40;;;4.20;;
7665;SDS011;3875;46.562;4.898;2022-10-31T12:32:53;9.90;;;4.63;;
7665;SDS011;3875;46.562;4.898;2022-10-31T12:40:51;10.00;;;4.13;;
7665;SDS011;3875;46.562;4.898;2022-10-31T12:45:59;12.33;;;4.43;;
7665;SDS011;3875;46.562;4.898;2022-10-31T12:59:42;9.33;;;3.10;;
7665;SDS011;3875;46.562;4.898;2022-10-31T13:11:09;7.97;;;3.00;;
7665;SDS011;3875;46.562;4.898;2022-10-31T13:16:25;13.57;;;2.90;;
7665;SDS011;3875;46.562;4.898;2022-10-31T13:18:57;9.13;;;3.20;;
7665;SDS011;3875;46.562;4.898;2022-10-31T13:21:33;8.50;;;2.60;;
7665;SDS011;3875;46.562;4.898;2022-10-31T13:24:14;4.70;;;2.33;;
7665;SDS011;3875;46.562;4.898;2022-10-31T13:26:48;7.73;;;2.80;;
7665;SDS011;3875;46.562;4.898;2022-10-31T13:31:46;7.27;;;2.40;;
7665;SDS011;3875;46.562;4.898;2022-10-31T13:34:20;5.57;;;2.30;;
7665;SDS011;3875;46.562;4.898;2022-10-31T13:44:41;11.33;;;2.70;;
7665;SDS011;3875;46.562;4.898;2022-10-31T13:47:29;9.90;;;2.50;;
7665;SDS011;3875;46.562;4.898;2022-10-31T13:52:51;11.38;;;2.53;;
7665;SDS011;3875;46.562;4.898;2022-10-31T13:58:28;11.17;;;2.70;;
7665;SDS011;3875;46.562;4.898;2022-10-31T14:01:11;6.37;;;2.73;;
7665;SDS011;3875;46.562;4.898;2022-10-31T14:03:38;9.67;;;2.87;;
7665;SDS011;3875;46.562;4.898;2022-10-31T14:06:05;13.90;;;2.87;;
7665;SDS011;3875;46.562;4.898;2022-10-31T14:08:34;6.23;;;3.00;;
7665;SDS011;3875;46.562;4.898;2022-10-31T14:11:03;6.27;;;2.43;;
7665;SDS011;3875;46.562;4.898;2022-10-31T14:13:36;10.13;;;2.30;;
7665;SDS011;3875;46.562;4.898;2022-10-31T14:18:50;5.07;;;2.37;;
7665;SDS011;3875;46.562;4.898;2022-10-31T14:23:48;13.37;;;3.30;;
7665;SDS011;3875;46.562;4.898;2022-10-31T14:28:54;8.40;;;2.60;;
7665;SDS011;3875;46.562;4.898;2022-10-31T14:33:58;9.67;;;3.00;;
7665;SDS011;3875;46.562;4.898;2022-10-31T14:36:42;5.37;;;2.97;;
7665;SDS011;3875;46.562;4.898;2022-10-31T14:39:39;9.00;;;2.80;;
7665;SDS011;3875;46.562;4.898;2022-10-31T14:50:59;6.90;;;2.60;;
7665;SDS011;3875;46.562;4.898;2022-10-31T14:53:32;10.03;;;2.63;;
7665;SDS011;3875;46.562;4.898;2022-10-31T14:56:00;11.07;;;2.97;;
7665;SDS011;3875;46.562;4.898;2022-10-31T14:58:29;11.30;;;2.90;;
7665;SDS011;3875;46.562;4.898;2022-10-31T15:01:03;8.93;;;3.00;;
7665;SDS011;3875;46.562;4.898;2022-10-31T15:03:33;12.50;;;3.13;;
7665;SDS011;3875;46.562;4.898;2022-10-31T15:06:11;6.93;;;2.77;;
7665;SDS011;3875;46.562;4.898;2022-10-31T15:08:40;12.30;;;2.70;;
7665;SDS011;3875;46.562;4.898;2022-10-31T15:13:49;7.97;;;3.07;;
7665;SDS011;3875;46.562;4.898;2022-10-31T15:18:54;9.23;;;2.80;;
7665;SDS011;3875;46.562;4.898;2022-10-31T15:21:28;9.63;;;3.10;;
7665;SDS011;3875;46.562;4.898;2022-10-31T15:23:54;7.47;;;3.27;;
7665;SDS011;3875;46.562;4.898;2022-10-31T15:26:27;13.53;;;3.90;;
7665;SDS011;3875;46.562;4.898;2022-10-31T15:29:16;13.97;;;3.10;;
7665;SDS011;3875;46.562;4.898;2022-10-31T15:31:55;11.40;;;3.30;;
7665;SDS011;3875;46.562;4.898;2022-10-31T15:37:02;11.73;;;3.13;;
7665;SDS011;3875;46.562;4.898;2022-10-31T15:39:28;10.03;;;3.50;;
7665;SDS011;3875;46.562;4.898;2022-10-31T15:41:57;13.60;;;3.90;;
7665;SDS011;3875;46.562;4.898;2022-10-31T15:44:34;11.47;;;3.50;;
7665;SDS011;3875;46.562;4.898;2022-10-31T15:47:05;13.30;;;3.07;;
7665;SDS011;3875;46.562;4.898;2022-10-31T15:49:41;16.03;;;3.53;;
7665;SDS011;3875;46.562;4.898;2022-10-31T15:55:20;7.13;;;3.33;;
7665;SDS011;3875;46.562;4.898;2022-10-31T15:57:53;8.20;;;3.23;;
7665;SDS011;3875;46.562;4.898;2022-10-31T16:03:04;9.73;;;3.80;;
7665;SDS011;3875;46.562;4.898;2022-10-31T16:05:48;8.27;;;3.47;;
7665;SDS011;3875;46.562;4.898;2022-10-31T16:13:29;14.87;;;4.07;;
7665;SDS011;3875;46.562;4.898;2022-10-31T16:15:57;8.70;;;3.53;;
7665;SDS011;3875;46.562;4.898;2022-10-31T16:18:37;11.10;;;3.87;;
7665;SDS011;3875;46.562;4.898;2022-10-31T16:21:05;23.50;;;4.53;;
7665;SDS011;3875;46.562;4.898;2022-10-31T16:23:32;13.83;;;4.47;;
7665;SDS011;3875;46.562;4.898;2022-10-31T16:25:58;10.43;;;3.90;;
7665;SDS011;3875;46.562;4.898;2022-10-31T16:28:25;6.33;;;3.30;;
7665;SDS011;3875;46.562;4.898;2022-10-31T16:30:53;8.43;;;3.80;;
7665;SDS011;3875;46.562;4.898;2022-10-31T16:33:21;13.90;;;4.40;;
7665;SDS011;3875;46.562;4.898;2022-10-31T16:38:53;13.60;;;4.43;;
7665;SDS011;3875;46.562;4.898;2022-10-31T16:41:19;11.47;;;4.20;;
7665;SDS011;3875;46.562;4.898;2022-10-31T16:43:45;9.87;;;4.10;;
7665;SDS011;3875;46.562;4.898;2022-10-31T16:46:15;14.30;;;4.77;;
7665;SDS011;3875;46.562;4.898;2022-10-31T16:48:46;11.23;;;4.40;;
7665;SDS011;3875;46.562;4.898;2022-10-31T16:51:12;11.10;;;4.50;;
7665;SDS011;3875;46.562;4.898;2022-10-31T16:53:37;13.37;;;4.63;;
7665;SDS011;3875;46.562;4.898;2022-10-31T16:56:03;14.80;;;4.50;;
7665;SDS011;3875;46.562;4.898;2022-10-31T16:58:30;12.47;;;4.47;;
7665;SDS011;3875;46.562;4.898;2022-10-31T17:01:01;14.23;;;4.60;;
7665;SDS011;3875;46.562;4.898;2022-10-31T17:03:29;8.87;;;3.77;;
7665;SDS011;3875;46.562;4.898;2022-10-31T17:05:55;10.73;;;4.40;;
7665;SDS011;3875;46.562;4.898;2022-10-31T17:08:21;13.03;;;4.53;;
7665;SDS011;3875;46.562;4.898;2022-10-31T17:10:50;11.10;;;4.20;;
7665;SDS011;3875;46.562;4.898;2022-10-31T17:13:20;8.83;;;4.30;;
7665;SDS011;3875;46.562;4.898;2022-10-31T17:15:49;11.07;;;4.47;;
7665;SDS011;3875;46.562;4.898;2022-10-31T17:18:17;15.70;;;5.03;;
7665;SDS011;3875;46.562;4.898;2022-10-31T17:20:43;8.47;;;4.10;;
7665;SDS011;3875;46.562;4.898;2022-10-31T17:23:10;13.50;;;4.67;;
7665;SDS011;3875;46.562;4.898;2022-10-31T17:25:37;9.63;;;4.70;;
7665;SDS011;3875;46.562;4.898;2022-10-31T17:28:03;11.27;;;4.20;;
7665;SDS011;3875;46.562;4.898;2022-10-31T17:30:30;17.90;;;4.67;;
7665;SDS011;3875;46.562;4.898;2022-10-31T17:32:56;11.57;;;4.27;;
7665;SDS011;3875;46.562;4.898;2022-10-31T17:35:22;9.37;;;4.40;;
7665;SDS011;3875;46.562;4.898;2022-10-31T17:37:48;14.57;;;4.13;;
7665;SDS011;3875;46.562;4.898;2022-10-31T17:40:15;10.83;;;4.33;;
7665;SDS011;3875;46.562;4.898;2022-10-31T17:42:47;10.40;;;3.97;;
7665;SDS011;3875;46.562;4.898;2022-10-31T17:45:18;9.40;;;3.80;;
7665;SDS011;3875;46.562;4.898;2022-10-31T17:47:48;9.80;;;3.83;;
7665;SDS011;3875;46.562;4.898;2022-10-31T17:50:19;10.93;;;3.63;;
7665;SDS011;3875;46.562;4.898;2022-10-31T17:52:46;11.60;;;4.60;;
7665;SDS011;3875;46.562;4.898;2022-10-31T17:55:13;14.00;;;4.33;;
7665;SDS011;3875;46.562;4.898;2022-10-31T17:57:39;9.63;;;4.37;;
7665;SDS011;3875;46.562;4.898;2022-10-31T18:00:10;10.17;;;4.93;;
7665;SDS011;3875;46.562;4.898;2022-10-31T18:02:38;7.33;;;3.77;;
7665;SDS011;3875;46.562;4.898;2022-10-31T18:05:04;10.40;;;4.13;;